createdAt,value
2023-05-12T00:03:45.364Z,9.60
2023-05-12T00:08:48.740Z,10.43
2023-05-12T00:13:52.222Z,12.10
2023-05-12T00:18:55.635Z,14.37
2023-05-12T00:23:59.117Z,15.80
2023-05-12T00:29:02.134Z,10.73
2023-05-12T00:34:05.311Z,12.80
2023-05-12T00:39:08.474Z,9.33
2023-05-12T00:44:11.689Z,8.70
2023-05-12T00:49:15.117Z,9.33
2023-05-12T00:54:18.436Z,10.17
2023-05-12T00:59:21.582Z,11.90
2023-05-12T01:04:25.030Z,10.10
2023-05-12T01:09:28.161Z,12.47
2023-05-12T01:14:31.270Z,9.57
2023-05-12T01:19:50.786Z,10.50
2023-05-12T01:24:57.562Z,10.67
2023-05-12T01:30:03.451Z,11.23
2023-05-12T01:35:07.008Z,10.57
2023-05-12T01:40:10.485Z,10.13
2023-05-12T01:45:13.561Z,10.57
2023-05-12T01:50:16.601Z,12.00
2023-05-12T01:55:19.971Z,13.07
2023-05-12T02:00:23.420Z,9.43
2023-05-12T02:05:26.693Z,9.10
2023-05-12T02:10:29.845Z,12.87
2023-05-12T02:15:33.411Z,11.53
2023-05-12T02:20:36.640Z,14.17
2023-05-12T02:25:39.656Z,10.13
2023-05-12T02:30:47.202Z,11.97
2023-05-12T02:35:50.941Z,10.77
2023-05-12T02:40:54.221Z,10.27
2023-05-12T02:45:57.583Z,10.20
2023-05-12T02:51:00.866Z,9.80
2023-05-12T02:56:04.116Z,10.07
2023-05-12T03:01:11.162Z,13.20
2023-05-12T03:06:15.493Z,11.13
2023-05-12T03:11:18.551Z,13.00
2023-05-12T03:16:21.714Z,11.70
2023-05-12T03:21:24.893Z,10.80
2023-05-12T03:26:28.093Z,11.57
2023-05-12T03:31:31.299Z,9.63
2023-05-12T03:36:34.360Z,11.47
2023-05-12T03:41:37.371Z,12.97
2023-05-12T03:46:40.416Z,10.17
2023-05-12T03:51:43.547Z,9.37
2023-05-12T03:56:46.507Z,11.00
2023-05-12T04:01:49.660Z,11.03
2023-05-12T04:06:52.994Z,9.20
2023-05-12T04:11:55.995Z,10.37
2023-05-12T04:16:59.186Z,9.63
2023-05-12T04:22:02.194Z,10.63
2023-05-12T04:27:06.163Z,11.43
2023-05-12T04:32:09.643Z,11.07
2023-05-12T04:37:12.789Z,7.70
2023-05-12T04:42:15.906Z,10.80
2023-05-12T04:47:18.836Z,8.20
2023-05-12T04:52:24.031Z,10.27
2023-05-12T04:57:28.289Z,9.27
2023-05-12T05:02:31.539Z,8.73
2023-05-12T05:07:34.942Z,13.73
2023-05-12T05:12:38.070Z,10.23
2023-05-12T05:17:43.653Z,10.73
2023-05-12T05:22:46.978Z,7.73
2023-05-12T05:27:50.113Z,8.83
2023-05-12T05:32:53.843Z,6.27
2023-05-12T05:37:57.668Z,8.53
2023-05-12T05:43:01.028Z,17.07
2023-05-12T05:48:04.511Z,7.30
2023-05-12T05:53:07.644Z,8.43
2023-05-12T05:58:10.940Z,11.80
2023-05-12T06:03:14.070Z,8.57
2023-05-12T06:08:17.746Z,19.47
2023-05-12T06:13:24.698Z,8.67
2023-05-12T06:18:27.831Z,8.97
2023-05-12T06:23:31.371Z,11.13
2023-05-12T06:28:34.781Z,7.47
2023-05-12T06:33:37.935Z,8.10
2023-05-12T06:38:40.993Z,12.03
2023-05-12T06:43:44.073Z,9.17
2023-05-12T06:48:47.088Z,8.07
2023-05-12T06:53:50.425Z,11.43
2023-05-12T06:58:54.544Z,5.20
2023-05-12T07:03:58.872Z,7.78
2023-05-12T07:09:01.957Z,10.32
2023-05-12T07:14:05.079Z,7.18
2023-05-12T07:19:11.054Z,11.05
2023-05-12T07:24:14.329Z,9.68
2023-05-12T07:29:18.135Z,6.82
2023-05-12T07:34:23.576Z,5.50
2023-05-12T07:39:27.875Z,10.00
2023-05-12T07:44:31.264Z,7.07
2023-05-12T07:49:34.282Z,7.18
2023-05-12T07:54:37.949Z,6.22
2023-05-12T07:59:41.667Z,5.53
2023-05-12T08:04:44.709Z,7.53
2023-05-12T08:09:48.138Z,10.57
2023-05-12T08:14:51.297Z,5.10
2023-05-12T08:19:54.320Z,8.77
2023-05-12T08:24:57.728Z,8.20
2023-05-12T08:30:00.838Z,6.63
2023-05-12T08:35:04.802Z,3.85
2023-05-12T08:40:21.502Z,5.57
2023-05-12T08:45:24.528Z,6.78
2023-05-12T08:50:29.660Z,19.00
2023-05-12T08:55:34.472Z,7.22
2023-05-12T09:00:41.871Z,13.68
2023-05-12T09:05:45.507Z,6.32
2023-05-12T09:10:49.998Z,10.30
2023-05-12T09:15:57.022Z,5.07
2023-05-12T09:21:01.763Z,7.10
2023-05-12T09:26:04.845Z,5.90
2023-05-12T09:31:28.414Z,6.90
2023-05-12T09:36:31.467Z,5.93
2023-05-12T09:41:38.901Z,4.97
2023-05-12T09:46:42.020Z,4.53
2023-05-12T09:51:45.364Z,5.28
2023-05-12T09:56:48.340Z,3.60
2023-05-12T10:01:52.075Z,5.72
2023-05-12T10:06:56.155Z,5.63
2023-05-12T10:12:00.806Z,4.78
2023-05-12T10:17:04.136Z,9.02
2023-05-12T10:22:11.456Z,5.80
2023-05-12T10:27:16.380Z,10.32
2023-05-12T10:32:19.763Z,4.88
2023-05-12T10:37:24.366Z,5.88
2023-05-12T10:42:27.694Z,5.22
2023-05-12T10:47:39.270Z,8.25
2023-05-12T10:52:54.291Z,5.15
2023-05-12T10:58:12.540Z,4.25
2023-05-12T11:03:18.888Z,5.00
2023-05-12T11:08:25.017Z,4.38
2023-05-12T11:13:31.054Z,6.38
2023-05-12T11:18:34.698Z,9.02
2023-05-12T11:23:38.015Z,8.13
2023-05-12T11:28:41.574Z,5.85
2023-05-12T11:33:44.648Z,7.35
2023-05-12T11:38:53.825Z,6.25
2023-05-12T11:43:56.967Z,6.03
2023-05-12T11:49:01.078Z,8.07
2023-05-12T11:54:07.504Z,15.88
2023-05-12T11:59:10.632Z,5.82
2023-05-12T12:04:14.027Z,6.22
2023-05-12T12:09:17.155Z,6.65
2023-05-12T12:14:20.261Z,4.75
2023-05-12T12:19:23.340Z,7.25
2023-05-12T12:24:26.748Z,5.35
2023-05-12T12:29:29.949Z,6.45
2023-05-12T12:34:33.769Z,8.55
2023-05-12T12:39:37.102Z,5.05
2023-05-12T12:44:40.515Z,6.75
2023-05-12T12:49:43.669Z,7.15
2023-05-12T12:54:46.669Z,6.10
2023-05-12T12:59:50.602Z,9.27
2023-05-12T13:04:53.666Z,6.07
2023-05-12T13:09:56.889Z,10.75
2023-05-12T13:15:03.334Z,7.95
2023-05-12T13:20:07.325Z,6.88
2023-05-12T13:25:11.635Z,8.55
2023-05-12T13:30:14.778Z,9.77
2023-05-12T13:35:18.258Z,7.63
2023-05-12T13:40:21.279Z,4.38
2023-05-12T13:45:24.517Z,7.82
2023-05-12T13:50:28.471Z,6.55
2023-05-12T13:55:34.403Z,4.32
2023-05-12T14:00:37.510Z,16.52
2023-05-12T14:05:40.992Z,9.25
2023-05-12T14:10:48.988Z,3.63
2023-05-12T14:15:54.136Z,6.82
2023-05-12T14:20:58.115Z,4.47
2023-05-12T14:26:02.107Z,7.10
2023-05-12T14:31:05.340Z,5.60
2023-05-12T14:36:09.080Z,11.30
2023-05-12T14:41:13.079Z,3.25
2023-05-12T14:46:16.659Z,5.32
2023-05-12T14:51:20.037Z,4.65
2023-05-12T14:56:23.029Z,6.85
2023-05-12T15:01:26.274Z,10.93
2023-05-12T15:06:29.623Z,5.40
2023-05-12T15:11:32.582Z,6.05
2023-05-12T15:16:35.723Z,5.45
2023-05-12T15:21:38.768Z,3.30
2023-05-12T15:26:41.906Z,10.73
2023-05-12T15:31:45.781Z,6.10
2023-05-12T15:36:49.179Z,7.47
2023-05-12T15:41:52.526Z,8.32
2023-05-12T15:46:56.149Z,4.43
2023-05-12T15:51:59.718Z,6.43
2023-05-12T15:57:02.970Z,4.68
2023-05-12T16:02:06.419Z,6.78
2023-05-12T16:07:09.697Z,9.20
2023-05-12T16:12:13.422Z,8.70
2023-05-12T16:17:16.548Z,9.00
2023-05-12T16:22:19.620Z,6.20
2023-05-12T16:27:23.965Z,9.95
2023-05-12T16:32:27.612Z,7.60
2023-05-12T16:37:30.870Z,15.65
2023-05-12T16:42:34.065Z,7.82
2023-05-12T16:47:39.549Z,4.97
2023-05-12T16:52:50.487Z,6.60
2023-05-12T16:57:54.652Z,10.43
2023-05-12T17:02:57.816Z,6.30
2023-05-12T17:08:00.986Z,7.70
2023-05-12T17:13:05.853Z,17.10
2023-05-12T17:18:09.328Z,8.02
2023-05-12T17:23:13.126Z,6.05
2023-05-12T17:28:16.244Z,6.43
2023-05-12T17:33:19.494Z,5.75
2023-05-12T17:38:22.625Z,8.63
2023-05-12T17:43:25.898Z,7.65
2023-05-12T17:48:33.577Z,6.05
2023-05-12T17:53:36.919Z,6.72
2023-05-12T17:58:40.070Z,9.00
2023-05-12T18:03:43.834Z,10.50
2023-05-12T18:08:47.442Z,6.07
2023-05-12T18:13:52.197Z,6.40
2023-05-12T18:18:55.916Z,10.30
2023-05-12T18:23:59.932Z,14.82
2023-05-12T18:29:03.319Z,9.00
2023-05-12T18:34:07.325Z,13.82
2023-05-12T18:39:11.578Z,10.73
2023-05-12T18:44:14.561Z,9.93
2023-05-12T18:49:18.993Z,8.43
2023-05-12T18:54:22.572Z,13.40
2023-05-12T18:59:28.871Z,7.50
2023-05-12T19:04:32.884Z,8.45
2023-05-12T19:09:37.367Z,9.88
2023-05-12T19:14:41.804Z,11.60
2023-05-12T19:19:46.597Z,17.27
2023-05-12T19:24:50.944Z,14.20
2023-05-12T19:29:55.836Z,17.03
2023-05-12T19:35:00.674Z,9.80
2023-05-12T19:40:05.010Z,16.17
2023-05-12T19:45:09.151Z,12.73
2023-05-12T19:50:12.894Z,14.03
2023-05-12T19:55:17.361Z,15.23
2023-05-12T20:00:22.621Z,25.60
2023-05-12T20:05:27.078Z,14.03
2023-05-12T20:10:30.147Z,10.67
2023-05-12T20:15:34.605Z,20.77
2023-05-12T20:20:38.198Z,20.73
2023-05-12T20:25:41.604Z,12.70
2023-05-12T20:30:44.678Z,12.97
2023-05-12T20:35:47.909Z,16.27
2023-05-12T20:40:51.259Z,15.73
2023-05-12T20:45:54.680Z,32.00
2023-05-12T20:50:58.223Z,45.33
2023-05-12T20:56:01.405Z,48.80
2023-05-12T21:01:04.753Z,34.70
2023-05-12T21:06:08.618Z,30.60
2023-05-12T21:11:17.151Z,33.63
2023-05-12T21:16:20.378Z,29.97
2023-05-12T21:21:23.615Z,41.97
2023-05-12T21:26:27.982Z,25.63
2023-05-12T21:31:31.336Z,30.20
2023-05-12T21:36:34.562Z,21.70
2023-05-12T21:41:38.918Z,23.87
2023-05-12T21:46:43.066Z,21.13
2023-05-12T21:51:46.432Z,20.40
2023-05-12T21:56:50.793Z,19.73
2023-05-12T22:01:54.043Z,19.27
2023-05-12T22:06:57.137Z,18.73
2023-05-12T22:12:00.390Z,14.63
2023-05-12T22:17:03.758Z,17.30
2023-05-12T22:22:06.976Z,15.03
2023-05-12T22:27:09.987Z,17.17
2023-05-12T22:32:13.080Z,17.23
2023-05-12T22:37:16.299Z,20.77
2023-05-12T22:42:19.607Z,15.77
2023-05-12T22:47:22.874Z,15.60
2023-05-12T22:52:26.168Z,17.00
2023-05-12T22:57:29.585Z,14.67
2023-05-12T23:02:32.704Z,13.80
2023-05-12T23:07:36.351Z,21.60
2023-05-12T23:12:39.885Z,21.80
2023-05-12T23:17:43.271Z,17.77
2023-05-12T23:22:46.846Z,16.10
2023-05-12T23:27:50.072Z,15.53
2023-05-12T23:32:53.196Z,20.47
2023-05-12T23:37:56.337Z,17.93
2023-05-12T23:42:59.720Z,16.53
2023-05-12T23:48:03.022Z,13.00
2023-05-12T23:53:06.058Z,18.37
2023-05-12T23:58:10.956Z,19.67
